sensor_id;sensor_type;location;lat;lon;timestamp;P1;P2;P0
64114;PMS5003;62188;35.640;139.748;2023-02-15T00:00:17;3;3;
64114;PMS5003;62188;35.640;139.748;2023-02-15T00:02:42;3;3;
64114;PMS5003;62188;35.640;139.748;2023-02-15T00:05:08;3;3;
64114;PMS5003;62188;35.640;139.748;2023-02-15T00:07:33;3;3;
64114;PMS5003;62188;35.640;139.748;2023-02-15T00:09:58;5;4;
64114;PMS5003;62188;35.640;139.748;2023-02-15T00:12:24;4;3;
64114;PMS5003;62188;35.640;139.748;2023-02-15T00:14:49;4;4;
64114;PMS5003;62188;35.640;139.748;2023-02-15T00:17:15;5;4;
64114;PMS5003;62188;35.640;139.748;2023-02-15T00:19:40;3;3;
64114;PMS5003;62188;35.640;139.748;2023-02-15T00:22:06;4;3;
64114;PMS5003;62188;35.640;139.748;2023-02-15T00:24:32;2;2;
64114;PMS5003;62188;35.640;139.748;2023-02-15T00:26:56;4;4;
64114;PMS5003;62188;35.640;139.748;2023-02-15T00:29:21;4;4;
64114;PMS5003;62188;35.640;139.748;2023-02-15T00:31:47;4;4;
64114;PMS5003;62188;35.640;139.748;2023-02-15T00:34:12;4;4;
64114;PMS5003;62188;35.640;139.748;2023-02-15T00:36:38;4;3;
64114;PMS5003;62188;35.640;139.748;2023-02-15T00:39:04;3;3;
64114;PMS5003;62188;35.640;139.748;2023-02-15T00:41:30;3;3;
64114;PMS5003;62188;35.640;139.748;2023-02-15T00:43:55;4;4;
64114;PMS5003;62188;35.640;139.748;2023-02-15T00:46:21;5;4;
64114;PMS5003;62188;35.640;139.748;2023-02-15T00:48:49;3;3;
64114;PMS5003;62188;35.640;139.748;2023-02-15T00:51:13;5;5;
64114;PMS5003;62188;35.640;139.748;2023-02-15T00:53:39;4;4;
64114;PMS5003;62188;35.640;139.748;2023-02-15T00:56:04;3;3;
64114;PMS5003;62188;35.640;139.748;2023-02-15T00:58:30;6;5;
64114;PMS5003;62188;35.640;139.748;2023-02-15T01:01:01;6;6;
64114;PMS5003;62188;35.640;139.748;2023-02-15T01:03:22;5;4;
64114;PMS5003;62188;35.640;139.748;2023-02-15T01:05:49;6;6;
64114;PMS5003;62188;35.640;139.748;2023-02-15T01:08:13;5;5;
64114;PMS5003;62188;35.640;139.748;2023-02-15T01:10:40;5;4;
64114;PMS5003;62188;35.640;139.748;2023-02-15T01:13:06;8;5;
64114;PMS5003;62188;35.640;139.748;2023-02-15T01:15:30;5;5;
64114;PMS5003;62188;35.640;139.748;2023-02-15T01:17:56;5;5;
64114;PMS5003;62188;35.640;139.748;2023-02-15T01:20:24;5;5;
64114;PMS5003;62188;35.640;139.748;2023-02-15T01:22:47;5;5;
64114;PMS5003;62188;35.640;139.748;2023-02-15T01:25:13;5;4;
64114;PMS5003;62188;35.640;139.748;2023-02-15T01:27:38;4;4;
64114;PMS5003;62188;35.640;139.748;2023-02-15T01:30:04;7;5;
64114;PMS5003;62188;35.640;139.748;2023-02-15T01:32:30;3;3;
64114;PMS5003;62188;35.640;139.748;2023-02-15T01:34:56;4;4;
64114;PMS5003;62188;35.640;139.748;2023-02-15T01:37:22;2;2;
64114;PMS5003;62188;35.640;139.748;2023-02-15T01:39:47;3;3;
64114;PMS5003;62188;35.640;139.748;2023-02-15T01:42:13;4;4;
64114;PMS5003;62188;35.640;139.748;2023-02-15T01:47:05;3;3;
64114;PMS5003;62188;35.640;139.748;2023-02-15T01:49:31;4;4;
64114;PMS5003;62188;35.640;139.748;2023-02-15T01:51:56;5;4;
64114;PMS5003;62188;35.640;139.748;2023-02-15T01:54:23;5;4;
64114;PMS5003;62188;35.640;139.748;2023-02-15T01:56:48;4;4;
64114;PMS5003;62188;35.640;139.748;2023-02-15T01:59:15;4;4;
64114;PMS5003;62188;35.640;139.748;2023-02-15T02:01:40;5;4;
64114;PMS5003;62188;35.640;139.748;2023-02-15T02:04:07;5;4;
64114;PMS5003;62188;35.640;139.748;2023-02-15T02:06:32;4;4;
64114;PMS5003;62188;35.640;139.748;2023-02-15T02:08:57;4;4;
64114;PMS5003;62188;35.640;139.748;2023-02-15T02:11:23;4;4;
64114;PMS5003;62188;35.640;139.748;2023-02-15T02:13:49;5;5;
64114;PMS5003;62188;35.640;139.748;2023-02-15T02:16:16;4;4;
64114;PMS5003;62188;35.640;139.748;2023-02-15T02:18:44;5;5;
64114;PMS5003;62188;35.640;139.748;2023-02-15T02:21:14;6;6;
64114;PMS5003;62188;35.640;139.748;2023-02-15T02:23:37;6;5;
64114;PMS5003;62188;35.640;139.748;2023-02-15T02:30:53;3;3;
64114;PMS5003;62188;35.640;139.748;2023-02-15T02:33:22;4;3;
64114;PMS5003;62188;35.640;139.748;2023-02-15T02:35:43;7;6;
64114;PMS5003;62188;35.640;139.748;2023-02-15T02:38:08;5;4;
64114;PMS5003;62188;35.640;139.748;2023-02-15T02:40:36;5;4;
64114;PMS5003;62188;35.640;139.748;2023-02-15T02:42:59;6;5;
64114;PMS5003;62188;35.640;139.748;2023-02-15T02:45:25;7;6;
64114;PMS5003;62188;35.640;139.748;2023-02-15T02:47:50;6;6;
64114;PMS5003;62188;35.640;139.748;2023-02-15T02:50:16;4;4;
64114;PMS5003;62188;35.640;139.748;2023-02-15T02:52:42;5;5;
64114;PMS5003;62188;35.640;139.748;2023-02-15T02:55:08;6;6;
64114;PMS5003;62188;35.640;139.748;2023-02-15T02:57:33;5;5;
64114;PMS5003;62188;35.640;139.748;2023-02-15T02:59:58;6;5;
64114;PMS5003;62188;35.640;139.748;2023-02-15T03:02:25;6;5;
64114;PMS5003;62188;35.640;139.748;2023-02-15T03:04:51;6;6;
64114;PMS5003;62188;35.640;139.748;2023-02-15T03:07:16;7;6;
64114;PMS5003;62188;35.640;139.748;2023-02-15T03:09:42;6;6;
64114;PMS5003;62188;35.640;139.748;2023-02-15T03:12:07;7;6;
64114;PMS5003;62188;35.640;139.748;2023-02-15T03:14:33;6;6;
64114;PMS5003;62188;35.640;139.748;2023-02-15T03:16:58;7;7;
64114;PMS5003;62188;35.640;139.748;2023-02-15T03:19:26;5;5;
64114;PMS5003;62188;35.640;139.748;2023-02-15T03:21:50;6;6;
64114;PMS5003;62188;35.640;139.748;2023-02-15T03:24:16;7;6;
64114;PMS5003;62188;35.640;139.748;2023-02-15T03:26:42;7;6;
64114;PMS5003;62188;35.640;139.748;2023-02-15T03:29:07;6;6;
64114;PMS5003;62188;35.640;139.748;2023-02-15T03:31:35;7;7;
64114;PMS5003;62188;35.640;139.748;2023-02-15T03:33:59;7;7;
64114;PMS5003;62188;35.640;139.748;2023-02-15T03:36:26;6;6;
64114;PMS5003;62188;35.640;139.748;2023-02-15T03:38:51;8;8;
64114;PMS5003;62188;35.640;139.748;2023-02-15T03:41:16;8;6;
64114;PMS5003;62188;35.640;139.748;2023-02-15T03:43:44;7;7;
64114;PMS5003;62188;35.640;139.748;2023-02-15T03:46:10;7;7;
64114;PMS5003;62188;35.640;139.748;2023-02-15T03:48:34;8;7;
64114;PMS5003;62188;35.640;139.748;2023-02-15T03:51:00;7;6;
64114;PMS5003;62188;35.640;139.748;2023-02-15T03:53:24;8;8;
64114;PMS5003;62188;35.640;139.748;2023-02-15T03:55:52;7;7;
64114;PMS5003;62188;35.640;139.748;2023-02-15T03:58:16;7;6;
64114;PMS5003;62188;35.640;139.748;2023-02-15T04:00:43;5;5;
64114;PMS5003;62188;35.640;139.748;2023-02-15T04:03:11;6;6;
64114;PMS5003;62188;35.640;139.748;2023-02-15T04:05:33;7;7;
64114;PMS5003;62188;35.640;139.748;2023-02-15T04:07:59;5;5;
64114;PMS5003;62188;35.640;139.748;2023-02-15T04:10:24;6;6;
64114;PMS5003;62188;35.640;139.748;2023-02-15T04:12:50;5;5;
64114;PMS5003;62188;35.640;139.748;2023-02-15T04:15:15;5;5;
64114;PMS5003;62188;35.640;139.748;2023-02-15T04:17:41;8;7;
64114;PMS5003;62188;35.640;139.748;2023-02-15T04:20:07;6;6;
64114;PMS5003;62188;35.640;139.748;2023-02-15T04:22:32;7;7;
64114;PMS5003;62188;35.640;139.748;2023-02-15T04:24:58;4;4;
64114;PMS5003;62188;35.640;139.748;2023-02-15T04:27:24;7;7;
64114;PMS5003;62188;35.640;139.748;2023-02-15T04:29:49;7;7;
64114;PMS5003;62188;35.640;139.748;2023-02-15T04:32:15;7;6;
64114;PMS5003;62188;35.640;139.748;2023-02-15T04:34:40;6;6;
64114;PMS5003;62188;35.640;139.748;2023-02-15T04:37:06;6;6;
64114;PMS5003;62188;35.640;139.748;2023-02-15T04:39:32;6;6;
64114;PMS5003;62188;35.640;139.748;2023-02-15T04:41:57;8;7;
64114;PMS5003;62188;35.640;139.748;2023-02-15T04:44:23;5;5;
64114;PMS5003;62188;35.640;139.748;2023-02-15T04:46:49;7;6;
64114;PMS5003;62188;35.640;139.748;2023-02-15T04:49:14;5;5;
64114;PMS5003;62188;35.640;139.748;2023-02-15T04:51:40;5;5;
64114;PMS5003;62188;35.640;139.748;2023-02-15T04:54:06;5;5;
64114;PMS5003;62188;35.640;139.748;2023-02-15T04:56:31;6;6;
64114;PMS5003;62188;35.640;139.748;2023-02-15T04:58:57;4;4;
64114;PMS5003;62188;35.640;139.748;2023-02-15T05:01:23;5;5;
64114;PMS5003;62188;35.640;139.748;2023-02-15T05:03:49;5;5;
64114;PMS5003;62188;35.640;139.748;2023-02-15T05:06:14;7;5;
64114;PMS5003;62188;35.640;139.748;2023-02-15T05:08:40;5;4;
64114;PMS5003;62188;35.640;139.748;2023-02-15T05:11:12;5;5;
64114;PMS5003;62188;35.640;139.748;2023-02-15T05:13:32;6;6;
64114;PMS5003;62188;35.640;139.748;2023-02-15T05:15:57;5;4;
64114;PMS5003;62188;35.640;139.748;2023-02-15T05:18:23;5;5;
64114;PMS5003;62188;35.640;139.748;2023-02-15T05:20:49;6;5;
64114;PMS5003;62188;35.640;139.748;2023-02-15T05:23:14;6;5;
64114;PMS5003;62188;35.640;139.748;2023-02-15T05:25:40;5;5;
64114;PMS5003;62188;35.640;139.748;2023-02-15T05:28:08;7;5;
64114;PMS5003;62188;35.640;139.748;2023-02-15T05:30:32;6;5;
64114;PMS5003;62188;35.640;139.748;2023-02-15T05:32:57;5;5;
64114;PMS5003;62188;35.640;139.748;2023-02-15T05:35:23;5;5;
64114;PMS5003;62188;35.640;139.748;2023-02-15T05:37:48;4;4;
64114;PMS5003;62188;35.640;139.748;2023-02-15T05:40:15;4;3;
64114;PMS5003;62188;35.640;139.748;2023-02-15T05:42:40;6;5;
64114;PMS5003;62188;35.640;139.748;2023-02-15T05:45:06;4;4;
64114;PMS5003;62188;35.640;139.748;2023-02-15T05:47:31;3;3;
64114;PMS5003;62188;35.640;139.748;2023-02-15T05:49:57;4;4;
64114;PMS5003;62188;35.640;139.748;2023-02-15T05:52:23;3;3;
64114;PMS5003;62188;35.640;139.748;2023-02-15T05:54:49;5;5;
64114;PMS5003;62188;35.640;139.748;2023-02-15T05:57:14;4;4;
64114;PMS5003;62188;35.640;139.748;2023-02-15T05:59:40;4;3;
64114;PMS5003;62188;35.640;139.748;2023-02-15T06:02:06;4;4;
64114;PMS5003;62188;35.640;139.748;2023-02-15T06:04:32;3;3;
64114;PMS5003;62188;35.640;139.748;2023-02-15T06:06:57;3;3;
64114;PMS5003;62188;35.640;139.748;2023-02-15T06:09:23;4;4;
64114;PMS5003;62188;35.640;139.748;2023-02-15T06:11:49;3;3;
64114;PMS5003;62188;35.640;139.748;2023-02-15T06:14:15;3;3;
64114;PMS5003;62188;35.640;139.748;2023-02-15T06:16:41;3;3;
64114;PMS5003;62188;35.640;139.748;2023-02-15T06:19:06;3;3;
64114;PMS5003;62188;35.640;139.748;2023-02-15T06:21:32;3;2;
64114;PMS5003;62188;35.640;139.748;2023-02-15T06:23:58;2;2;
64114;PMS5003;62188;35.640;139.748;2023-02-15T06:26:23;4;3;
64114;PMS5003;62188;35.640;139.748;2023-02-15T06:28:49;2;2;
64114;PMS5003;62188;35.640;139.748;2023-02-15T06:31:15;3;3;
64114;PMS5003;62188;35.640;139.748;2023-02-15T06:33:41;2;2;
64114;PMS5003;62188;35.640;139.748;2023-02-15T06:36:06;3;2;
64114;PMS5003;62188;35.640;139.748;2023-02-15T06:38:32;3;3;
64114;PMS5003;62188;35.640;139.748;2023-02-15T06:40:58;2;2;
64114;PMS5003;62188;35.640;139.748;2023-02-15T06:43:24;1;1;
64114;PMS5003;62188;35.640;139.748;2023-02-15T06:45:49;3;2;
64114;PMS5003;62188;35.640;139.748;2023-02-15T06:48:15;3;2;
64114;PMS5003;62188;35.640;139.748;2023-02-15T06:50:41;1;1;
64114;PMS5003;62188;35.640;139.748;2023-02-15T06:53:07;2;2;
64114;PMS5003;62188;35.640;139.748;2023-02-15T06:55:32;2;2;
64114;PMS5003;62188;35.640;139.748;2023-02-15T06:57:58;2;2;
64114;PMS5003;62188;35.640;139.748;2023-02-15T07:00:24;2;2;
64114;PMS5003;62188;35.640;139.748;2023-02-15T07:02:53;2;1;
64114;PMS5003;62188;35.640;139.748;2023-02-15T07:05:15;2;2;
64114;PMS5003;62188;35.640;139.748;2023-02-15T07:07:41;2;2;
64114;PMS5003;62188;35.640;139.748;2023-02-15T07:10:07;2;2;
64114;PMS5003;62188;35.640;139.748;2023-02-15T07:12:32;3;2;
64114;PMS5003;62188;35.640;139.748;2023-02-15T07:14:58;2;2;
64114;PMS5003;62188;35.640;139.748;2023-02-15T07:17:23;2;2;
64114;PMS5003;62188;35.640;139.748;2023-02-15T07:19:49;2;2;
64114;PMS5003;62188;35.640;139.748;2023-02-15T07:22:15;1;1;
64114;PMS5003;62188;35.640;139.748;2023-02-15T07:24:41;1;1;
64114;PMS5003;62188;35.640;139.748;2023-02-15T07:27:06;1;1;
64114;PMS5003;62188;35.640;139.748;2023-02-15T07:29:32;2;2;
64114;PMS5003;62188;35.640;139.748;2023-02-15T07:31:58;2;2;
64114;PMS5003;62188;35.640;139.748;2023-02-15T07:34:24;3;2;
64114;PMS5003;62188;35.640;139.748;2023-02-15T07:36:50;3;1;
64114;PMS5003;62188;35.640;139.748;2023-02-15T07:39:15;1;1;
64114;PMS5003;62188;35.640;139.748;2023-02-15T07:41:41;1;1;
64114;PMS5003;62188;35.640;139.748;2023-02-15T07:44:10;2;2;
64114;PMS5003;62188;35.640;139.748;2023-02-15T07:46:32;2;2;
64114;PMS5003;62188;35.640;139.748;2023-02-15T07:48:58;1;1;
64114;PMS5003;62188;35.640;139.748;2023-02-15T07:51:24;2;2;
64114;PMS5003;62188;35.640;139.748;2023-02-15T07:53:50;2;2;
64114;PMS5003;62188;35.640;139.748;2023-02-15T07:56:15;2;1;
64114;PMS5003;62188;35.640;139.748;2023-02-15T07:58:41;3;3;
64114;PMS5003;62188;35.640;139.748;2023-02-15T08:01:07;2;2;
64114;PMS5003;62188;35.640;139.748;2023-02-15T08:03:33;3;3;
64114;PMS5003;62188;35.640;139.748;2023-02-15T08:05:59;3;3;
64114;PMS5003;62188;35.640;139.748;2023-02-15T08:08:25;2;2;
64114;PMS5003;62188;35.640;139.748;2023-02-15T08:10:50;1;1;
64114;PMS5003;62188;35.640;139.748;2023-02-15T08:13:16;1;1;
64114;PMS5003;62188;35.640;139.748;2023-02-15T08:18:08;2;2;
64114;PMS5003;62188;35.640;139.748;2023-02-15T08:20:33;3;2;
64114;PMS5003;62188;35.640;139.748;2023-02-15T08:22:59;2;2;
64114;PMS5003;62188;35.640;139.748;2023-02-15T08:25:25;1;1;
64114;PMS5003;62188;35.640;139.748;2023-02-15T08:27:50;2;2;
64114;PMS5003;62188;35.640;139.748;2023-02-15T08:30:16;2;2;
64114;PMS5003;62188;35.640;139.748;2023-02-15T08:32:42;1;1;
64114;PMS5003;62188;35.640;139.748;2023-02-15T08:35:08;2;2;
64114;PMS5003;62188;35.640;139.748;2023-02-15T08:37:34;1;1;
64114;PMS5003;62188;35.640;139.748;2023-02-15T08:39:59;2;2;
64114;PMS5003;62188;35.640;139.748;2023-02-15T08:42:25;0;0;
64114;PMS5003;62188;35.640;139.748;2023-02-15T08:44:51;1;1;
64114;PMS5003;62188;35.640;139.748;2023-02-15T08:47:16;2;2;
64114;PMS5003;62188;35.640;139.748;2023-02-15T08:49:42;1;1;
64114;PMS5003;62188;35.640;139.748;2023-02-15T08:52:08;1;1;
64114;PMS5003;62188;35.640;139.748;2023-02-15T08:54:34;2;2;
64114;PMS5003;62188;35.640;139.748;2023-02-15T08:57:00;2;2;
64114;PMS5003;62188;35.640;139.748;2023-02-15T08:59:25;3;3;
64114;PMS5003;62188;35.640;139.748;2023-02-15T09:01:51;2;2;
64114;PMS5003;62188;35.640;139.748;2023-02-15T09:04:17;3;3;
64114;PMS5003;62188;35.640;139.748;2023-02-15T09:06:43;2;2;
64114;PMS5003;62188;35.640;139.748;2023-02-15T09:09:09;1;1;
64114;PMS5003;62188;35.640;139.748;2023-02-15T09:11:35;3;3;
64114;PMS5003;62188;35.640;139.748;2023-02-15T09:14:00;5;3;
64114;PMS5003;62188;35.640;139.748;2023-02-15T09:16:26;3;3;
64114;PMS5003;62188;35.640;139.748;2023-02-15T09:18:51;3;2;
64114;PMS5003;62188;35.640;139.748;2023-02-15T09:21:18;3;2;
64114;PMS5003;62188;35.640;139.748;2023-02-15T09:23:45;3;2;
64114;PMS5003;62188;35.640;139.748;2023-02-15T09:26:11;2;2;
64114;PMS5003;62188;35.640;139.748;2023-02-15T09:28:35;3;3;
64114;PMS5003;62188;35.640;139.748;2023-02-15T09:31:07;5;5;
64114;PMS5003;62188;35.640;139.748;2023-02-15T09:33:26;3;3;
64114;PMS5003;62188;35.640;139.748;2023-02-15T09:35:52;3;3;
64114;PMS5003;62188;35.640;139.748;2023-02-15T09:38:18;2;2;
64114;PMS5003;62188;35.640;139.748;2023-02-15T09:40:46;3;2;
64114;PMS5003;62188;35.640;139.748;2023-02-15T09:43:14;3;3;
64114;PMS5003;62188;35.640;139.748;2023-02-15T09:45:39;3;3;
64114;PMS5003;62188;35.640;139.748;2023-02-15T09:48:05;2;2;
64114;PMS5003;62188;35.640;139.748;2023-02-15T09:50:28;3;3;
64114;PMS5003;62188;35.640;139.748;2023-02-15T09:52:55;3;3;
64114;PMS5003;62188;35.640;139.748;2023-02-15T09:55:22;4;3;
64114;PMS5003;62188;35.640;139.748;2023-02-15T09:57:45;3;3;
64114;PMS5003;62188;35.640;139.748;2023-02-15T10:00:12;3;3;
64114;PMS5003;62188;35.640;139.748;2023-02-15T10:02:39;3;2;
64114;PMS5003;62188;35.640;139.748;2023-02-15T10:05:06;2;2;
64114;PMS5003;62188;35.640;139.748;2023-02-15T10:07:32;3;3;
64114;PMS5003;62188;35.640;139.748;2023-02-15T10:09:56;2;2;
64114;PMS5003;62188;35.640;139.748;2023-02-15T10:12:23;4;3;
64114;PMS5003;62188;35.640;139.748;2023-02-15T10:14:51;3;3;
64114;PMS5003;62188;35.640;139.748;2023-02-15T10:17:14;2;2;
64114;PMS5003;62188;35.640;139.748;2023-02-15T10:19:38;3;3;
64114;PMS5003;62188;35.640;139.748;2023-02-15T10:22:05;4;3;
64114;PMS5003;62188;35.640;139.748;2023-02-15T10:24:33;2;2;
64114;PMS5003;62188;35.640;139.748;2023-02-15T10:26:54;3;3;
64114;PMS5003;62188;35.640;139.748;2023-02-15T10:29:24;4;4;
64114;PMS5003;62188;35.640;139.748;2023-02-15T10:31:47;5;4;
64114;PMS5003;62188;35.640;139.748;2023-02-15T10:34:14;4;4;
64114;PMS5003;62188;35.640;139.748;2023-02-15T10:36:42;2;2;
64114;PMS5003;62188;35.640;139.748;2023-02-15T10:39:04;4;3;
64114;PMS5003;62188;35.640;139.748;2023-02-15T10:41:32;7;7;
64114;PMS5003;62188;35.640;139.748;2023-02-15T10:43:59;5;4;
64114;PMS5003;62188;35.640;139.748;2023-02-15T10:46:24;5;4;
64114;PMS5003;62188;35.640;139.748;2023-02-15T10:48:52;5;4;
64114;PMS5003;62188;35.640;139.748;2023-02-15T10:51:13;4;4;
64114;PMS5003;62188;35.640;139.748;2023-02-15T10:53:45;3;3;
64114;PMS5003;62188;35.640;139.748;2023-02-15T10:56:06;7;5;
64114;PMS5003;62188;35.640;139.748;2023-02-15T10:58:34;4;4;
64114;PMS5003;62188;35.640;139.748;2023-02-15T11:00:56;6;6;
64114;PMS5003;62188;35.640;139.748;2023-02-15T11:03:24;4;4;
64114;PMS5003;62188;35.640;139.748;2023-02-15T11:05:49;6;5;
64114;PMS5003;62188;35.640;139.748;2023-02-15T11:08:13;7;7;
64114;PMS5003;62188;35.640;139.748;2023-02-15T11:10:39;3;3;
64114;PMS5003;62188;35.640;139.748;2023-02-15T11:13:07;5;5;
64114;PMS5003;62188;35.640;139.748;2023-02-15T11:15:31;3;3;
64114;PMS5003;62188;35.640;139.748;2023-02-15T11:17:56;4;3;
64114;PMS5003;62188;35.640;139.748;2023-02-15T11:20:23;4;4;
64114;PMS5003;62188;35.640;139.748;2023-02-15T11:22:48;4;4;
64114;PMS5003;62188;35.640;139.748;2023-02-15T11:25:15;3;3;
64114;PMS5003;62188;35.640;139.748;2023-02-15T11:27:39;5;4;
64114;PMS5003;62188;35.640;139.748;2023-02-15T11:30:05;7;7;
64114;PMS5003;62188;35.640;139.748;2023-02-15T11:32:31;4;4;
64114;PMS5003;62188;35.640;139.748;2023-02-15T11:34:58;5;5;
64114;PMS5003;62188;35.640;139.748;2023-02-15T11:37:23;3;3;
64114;PMS5003;62188;35.640;139.748;2023-02-15T11:39:47;3;3;
64114;PMS5003;62188;35.640;139.748;2023-02-15T11:42:14;3;3;
64114;PMS5003;62188;35.640;139.748;2023-02-15T11:44:46;4;4;
64114;PMS5003;62188;35.640;139.748;2023-02-15T11:47:07;4;3;
64114;PMS5003;62188;35.640;139.748;2023-02-15T11:49:31;2;2;
64114;PMS5003;62188;35.640;139.748;2023-02-15T11:51:56;3;3;
64114;PMS5003;62188;35.640;139.748;2023-02-15T11:54:23;4;3;
64114;PMS5003;62188;35.640;139.748;2023-02-15T11:56:48;3;2;
64114;PMS5003;62188;35.640;139.748;2023-02-15T11:59:16;2;2;
64114;PMS5003;62188;35.640;139.748;2023-02-15T12:01:40;4;3;
64114;PMS5003;62188;35.640;139.748;2023-02-15T12:04:08;3;3;
64114;PMS5003;62188;35.640;139.748;2023-02-15T12:06:33;2;2;
64114;PMS5003;62188;35.640;139.748;2023-02-15T12:09:00;2;2;
64114;PMS5003;62188;35.640;139.748;2023-02-15T12:11:26;3;2;
64114;PMS5003;62188;35.640;139.748;2023-02-15T12:13:55;2;2;
64114;PMS5003;62188;35.640;139.748;2023-02-15T12:16:15;2;2;
64114;PMS5003;62188;35.640;139.748;2023-02-15T12:18:41;3;3;
64114;PMS5003;62188;35.640;139.748;2023-02-15T12:21:07;3;3;
64114;PMS5003;62188;35.640;139.748;2023-02-15T12:23:32;3;3;
64114;PMS5003;62188;35.640;139.748;2023-02-15T12:25:58;3;3;
64114;PMS5003;62188;35.640;139.748;2023-02-15T12:28:24;4;4;
64114;PMS5003;62188;35.640;139.748;2023-02-15T12:30:49;4;4;
64114;PMS5003;62188;35.640;139.748;2023-02-15T12:33:16;4;3;
64114;PMS5003;62188;35.640;139.748;2023-02-15T12:35:41;4;4;
64114;PMS5003;62188;35.640;139.748;2023-02-15T12:38:23;4;4;
64114;PMS5003;62188;35.640;139.748;2023-02-15T12:40:33;2;2;
64114;PMS5003;62188;35.640;139.748;2023-02-15T12:42:58;5;3;
64114;PMS5003;62188;35.640;139.748;2023-02-15T12:45:25;3;3;
64114;PMS5003;62188;35.640;139.748;2023-02-15T12:50:21;2;2;
64114;PMS5003;62188;35.640;139.748;2023-02-15T12:52:42;2;2;
64114;PMS5003;62188;35.640;139.748;2023-02-15T12:55:11;4;3;
64114;PMS5003;62188;35.640;139.748;2023-02-15T12:57:33;3;3;
64114;PMS5003;62188;35.640;139.748;2023-02-15T13:00:00;3;2;
64114;PMS5003;62188;35.640;139.748;2023-02-15T13:02:27;1;1;
64114;PMS5003;62188;35.640;139.748;2023-02-15T13:04:50;4;4;
64114;PMS5003;62188;35.640;139.748;2023-02-15T13:07:16;3;3;
64114;PMS5003;62188;35.640;139.748;2023-02-15T13:09:42;2;1;
64114;PMS5003;62188;35.640;139.748;2023-02-15T13:12:15;3;3;
64114;PMS5003;62188;35.640;139.748;2023-02-15T13:14:34;3;3;
64114;PMS5003;62188;35.640;139.748;2023-02-15T13:17:01;2;2;
64114;PMS5003;62188;35.640;139.748;2023-02-15T13:19:28;3;3;
64114;PMS5003;62188;35.640;139.748;2023-02-15T13:21:51;4;2;
64114;PMS5003;62188;35.640;139.748;2023-02-15T13:24:18;2;2;
64114;PMS5003;62188;35.640;139.748;2023-02-15T13:26:43;3;3;
64114;PMS5003;62188;35.640;139.748;2023-02-15T13:29:17;4;3;
64114;PMS5003;62188;35.640;139.748;2023-02-15T13:31:34;3;3;
64114;PMS5003;62188;35.640;139.748;2023-02-15T13:34:01;2;2;
64114;PMS5003;62188;35.640;139.748;2023-02-15T13:36:27;4;4;
64114;PMS5003;62188;35.640;139.748;2023-02-15T13:38:56;5;3;
64114;PMS5003;62188;35.640;139.748;2023-02-15T13:41:19;3;3;
64114;PMS5003;62188;35.640;139.748;2023-02-15T13:43:46;3;3;
64114;PMS5003;62188;35.640;139.748;2023-02-15T13:46:14;3;2;
64114;PMS5003;62188;35.640;139.748;2023-02-15T13:48:38;2;2;
64114;PMS5003;62188;35.640;139.748;2023-02-15T13:51:05;2;2;
64114;PMS5003;62188;35.640;139.748;2023-02-15T13:53:32;2;2;
64114;PMS5003;62188;35.640;139.748;2023-02-15T13:55:53;3;2;
64114;PMS5003;62188;35.640;139.748;2023-02-15T14:00:46;2;2;
64114;PMS5003;62188;35.640;139.748;2023-02-15T14:03:14;2;2;
64114;PMS5003;62188;35.640;139.748;2023-02-15T14:05:39;3;2;
64114;PMS5003;62188;35.640;139.748;2023-02-15T14:08:04;3;3;
64114;PMS5003;62188;35.640;139.748;2023-02-15T14:10:31;2;2;
64114;PMS5003;62188;35.640;139.748;2023-02-15T14:12:57;4;2;
64114;PMS5003;62188;35.640;139.748;2023-02-15T14:15:23;2;2;
64114;PMS5003;62188;35.640;139.748;2023-02-15T14:17:47;3;3;
64114;PMS5003;62188;35.640;139.748;2023-02-15T14:20:14;3;3;
64114;PMS5003;62188;35.640;139.748;2023-02-15T14:22:38;3;3;
64114;PMS5003;62188;35.640;139.748;2023-02-15T14:27:38;3;3;
64114;PMS5003;62188;35.640;139.748;2023-02-15T14:29:55;3;2;
64114;PMS5003;62188;35.640;139.748;2023-02-15T14:32:21;4;4;
64114;PMS5003;62188;35.640;139.748;2023-02-15T14:34:46;3;2;
64114;PMS5003;62188;35.640;139.748;2023-02-15T14:37:11;2;2;
64114;PMS5003;62188;35.640;139.748;2023-02-15T14:39:41;2;2;
64114;PMS5003;62188;35.640;139.748;2023-02-15T14:42:04;3;3;
64114;PMS5003;62188;35.640;139.748;2023-02-15T14:44:30;1;1;
64114;PMS5003;62188;35.640;139.748;2023-02-15T14:46:55;4;4;
64114;PMS5003;62188;35.640;139.748;2023-02-15T14:49:21;4;4;
64114;PMS5003;62188;35.640;139.748;2023-02-15T14:51:56;3;3;
64114;PMS5003;62188;35.640;139.748;2023-02-15T14:54:52;3;3;
64114;PMS5003;62188;35.640;139.748;2023-02-15T14:56:37;2;2;
64114;PMS5003;62188;35.640;139.748;2023-02-15T14:59:12;2;2;
64114;PMS5003;62188;35.640;139.748;2023-02-15T15:01:30;3;3;
64114;PMS5003;62188;35.640;139.748;2023-02-15T15:03:56;3;2;
64114;PMS5003;62188;35.640;139.748;2023-02-15T15:06:23;3;3;
64114;PMS5003;62188;35.640;139.748;2023-02-15T15:08:46;4;3;
64114;PMS5003;62188;35.640;139.748;2023-02-15T15:13:39;4;4;
64114;PMS5003;62188;35.640;139.748;2023-02-15T15:20:55;3;3;
64114;PMS5003;62188;35.640;139.748;2023-02-15T15:25:47;4;4;
64114;PMS5003;62188;35.640;139.748;2023-02-15T15:30:48;3;3;
64114;PMS5003;62188;35.640;139.748;2023-02-15T15:33:07;3;3;
64114;PMS5003;62188;35.640;139.748;2023-02-15T15:35:32;2;2;
64114;PMS5003;62188;35.640;139.748;2023-02-15T15:42:52;3;3;
64114;PMS5003;62188;35.640;139.748;2023-02-15T15:47:42;4;4;
64114;PMS5003;62188;35.640;139.748;2023-02-15T15:50:10;4;4;
64114;PMS5003;62188;35.640;139.748;2023-02-15T15:52:29;3;3;
64114;PMS5003;62188;35.640;139.748;2023-02-15T15:54:56;4;4;
64114;PMS5003;62188;35.640;139.748;2023-02-15T15:57:22;4;4;
64114;PMS5003;62188;35.640;139.748;2023-02-15T15:59:46;6;5;
64114;PMS5003;62188;35.640;139.748;2023-02-15T16:02:13;2;2;
64114;PMS5003;62188;35.640;139.748;2023-02-15T16:04:37;3;3;
64114;PMS5003;62188;35.640;139.748;2023-02-15T16:09:28;3;3;
64114;PMS5003;62188;35.640;139.748;2023-02-15T16:11:53;3;3;
64114;PMS5003;62188;35.640;139.748;2023-02-15T16:14:21;3;3;
64114;PMS5003;62188;35.640;139.748;2023-02-15T16:16:49;6;5;
64114;PMS5003;62188;35.640;139.748;2023-02-15T16:21:35;4;4;
64114;PMS5003;62188;35.640;139.748;2023-02-15T16:24:05;3;3;
64114;PMS5003;62188;35.640;139.748;2023-02-15T16:28:52;4;3;
64114;PMS5003;62188;35.640;139.748;2023-02-15T16:31:17;4;3;
64114;PMS5003;62188;35.640;139.748;2023-02-15T16:33:43;4;4;
64114;PMS5003;62188;35.640;139.748;2023-02-15T16:36:10;5;4;
64114;PMS5003;62188;35.640;139.748;2023-02-15T16:40:58;4;4;
64114;PMS5003;62188;35.640;139.748;2023-02-15T16:43:24;5;5;
64114;PMS5003;62188;35.640;139.748;2023-02-15T16:45:49;2;2;
64114;PMS5003;62188;35.640;139.748;2023-02-15T16:48:16;4;3;
64114;PMS5003;62188;35.640;139.748;2023-02-15T16:50:40;4;4;
64114;PMS5003;62188;35.640;139.748;2023-02-15T16:53:06;3;3;